Latest Weather Observations for Lucas Heights (ANSTO)

IDN60801

Issued at 6:42 am EST Tuesday 11 August 2020 (issued every 10 minutes, with the page automatically refreshed every 10 minutes)

About weather observations | Map of weather stations | Latest weather observations for NSW | Other Formats
Station Details ID: 066023 Name: LUCAS HEIGHTS (ANSTO) Lat: -34.05 Lon: 150.98 Height: 140.0 m
Data from the previous 72 hours. | See also: Recent months for locations in New South Wales
Date/Time
EST
Temp
°C
App
Temp
°C
Dew
Point
°C
Rel
Hum
%
Delta-T
°C
Wind Press
QNH
hPa
Press
MSL
hPa
Rain since
9am
mm
Dir  Spd
km/h
Gust
km/h
Spd
kts
Gust
kts
11/06:30am 9.2 6.1 7.2 87 0.9 SSW 13 17 7 9 1021.6 - 2.7
11/06:15am 9.2 6.1 7.3 88 0.9 SSW 13 17 7 9 1021.6 - 2.7
11/06:00am 9.1 6.0 7.2 88 0.9 S 13 15 7 8 1021.5 - 2.7
11/05:45am 9.1 6.0 7.1 87 0.9 S 13 15 7 8 1021.4 - 2.7
11/05:30am 9.1 5.6 7.1 87 0.9 SSW 15 17 8 9 1021.3 - 2.7
11/05:15am 9.1 5.2 7.2 88 0.9 SW 17 19 9 10 1021.3 - 2.7
11/05:00am 9.1 5.2 7.2 88 0.9 SW 17 20 9 11 1021.1 - 2.7
11/04:45am 9.2 5.3 7.2 87 0.9 SW 17 19 9 10 1021.1 - 2.7
11/04:30am 9.3 4.9 7.4 88 0.9 SW 20 22 11 12 1021.0 - 2.7
11/04:15am 9.2 4.8 7.4 88 0.9 SW 20 22 11 12 1021.0 - 2.7
11/04:00am 9.2 6.5 7.4 88 0.9 SSW 11 17 6 9 1021.0 - 2.7
11/03:45am 9.3 4.9 7.5 88 0.9 SW 20 26 11 14 1020.9 - 2.7
11/03:30am 9.3 4.5 7.5 88 0.9 SW 22 24 12 13 1020.9 - 2.7
11/03:15am 9.3 4.6 7.6 89 0.8 SW 22 22 12 12 1020.9 - 2.7
11/03:00am 9.2 5.0 7.6 90 0.8 SSW 19 22 10 12 1020.9 - 2.7
11/02:45am 9.2 6.6 7.6 90 0.8 SSW 11 13 6 7 1020.8 - 2.7
11/02:30am 9.3 5.9 7.7 90 0.8 SSW 15 20 8 11 1021.0 - 2.7
11/02:15am 9.3 5.0 7.7 90 0.8 SW 20 24 11 13 1021.2 - 2.7
11/02:00am 9.2 5.1 7.7 90 0.7 SW 19 22 10 12 1021.3 - 2.7
11/01:45am 9.2 4.9 7.7 90 0.7 SW 20 22 11 12 1021.3 - 2.7
11/01:30am 9.1 4.4 7.7 91 0.7 SW 22 24 12 13 1021.2 - 2.7
11/01:15am 9.1 3.2 7.6 90 0.7 SW 28 26 15 14 1021.1 - 2.7
11/01:00am 9.1 4.0 7.6 90 0.7 SW 24 26 13 14 1021.0 - 2.7
11/12:45am 9.0 4.6 7.6 91 0.7 SW 20 20 11 11 1021.0 - 2.7
11/12:30am 9.0 5.2 7.5 90 0.7 SW 17 20 9 11 1021.1 - 2.7
11/12:15am 9.0 5.2 7.6 91 0.7 SW 17 19 9 10 1021.1 - 2.7
11/12:00am 9.0 6.0 7.6 91 0.7 SSW 13 17 7 9 1021.2 - 2.7
 
Date/Time
EST
Temp
°C
App
Temp
°C
Dew
Point
°C
Rel
Hum
%
Delta-T
°C
Wind Press
QNH
hPa
Press
MSL
hPa
Rain since
9am
mm
Dir  Spd
km/h
Gust
km/h
Spd
kts
Gust
kts
10/11:45pm 9.0 4.6 7.6 91 0.7 SW 20 20 11 11 1021.1 - 2.7
10/11:30pm 8.9 3.8 7.5 91 0.7 SW 24 26 13 14 1021.1 - 2.7
10/11:15pm 8.6 3.4 7.2 91 0.7 SW 24 26 13 14 1021.0 - 2.7
10/11:00pm 8.4 3.1 7.0 91 0.7 SW 24 26 13 14 1020.9 - 2.7
10/10:45pm 8.4 4.1 6.9 90 0.7 SW 19 22 10 12 1020.9 - 2.7
10/10:30pm 8.5 4.6 6.9 90 0.8 SW 17 17 9 9 1021.0 - 2.7
10/10:15pm 8.7 4.8 7.1 90 0.8 SW 17 19 9 10 1021.1 - 2.7
10/10:00pm 8.9 4.7 7.3 90 0.8 SW 19 19 10 10 1021.3 - 2.7
10/09:45pm 9.2 4.4 7.5 89 0.8 SW 22 22 12 12 1021.5 - 2.7
10/09:30pm 9.5 4.8 7.7 88 0.9 SW 22 24 12 13 1021.5 - 2.7
10/09:15pm 9.8 5.7 8.0 88 0.9 SSW 19 24 10 13 1021.5 - 2.7
10/09:00pm 9.8 5.8 8.1 89 0.8 SSW 19 26 10 14 1021.3 - 2.7
10/08:45pm 9.5 5.2 7.9 90 0.8 SSW 20 24 11 13 1021.3 - 2.7
10/08:30pm 9.3 4.6 7.7 90 0.8 SSW 22 26 12 14 1021.2 - 2.7
10/08:15pm 9.3 4.6 7.7 90 0.8 SW 22 22 12 12 1021.2 - 2.7
10/08:00pm 9.4 5.3 7.9 90 0.7 SSW 19 22 10 12 1020.9 - 2.7
10/07:45pm 9.5 6.2 8.0 90 0.7 SSW 15 17 8 9 1020.9 - 2.7
10/07:30pm 9.6 5.9 8.0 90 0.8 S 17 22 9 12 1020.8 - 2.7
10/07:15pm 9.6 5.9 8.0 90 0.8 S 17 22 9 12 1020.9 - 2.7
10/07:00pm 9.5 5.8 8.0 90 0.7 S 17 22 9 12 1020.8 - 2.7
10/06:45pm 9.7 6.4 8.1 90 0.8 S 15 24 8 13 1020.8 - 2.5
10/06:30pm 9.9 6.3 8.2 89 0.8 SSE 17 26 9 14 1020.7 - 2.5
10/06:15pm 9.9 5.9 8.2 89 0.8 S 19 28 10 15 1020.4 - 2.3
10/06:00pm 10.0 5.4 8.3 89 0.8 S 22 30 12 16 1020.2 - 2.3
10/05:45pm 9.9 5.7 8.2 89 0.8 S 20 28 11 15 1019.9 - 2.3
10/05:30pm 10.0 6.0 8.3 89 0.8 S 19 33 10 18 1019.7 - 2.3
10/05:15pm 10.0 5.8 8.4 90 0.8 S 20 32 11 17 1019.7 - 2.1
10/05:00pm 10.1 6.0 8.5 90 0.8 S 20 26 11 14 1019.6 - 1.9
10/04:45pm 10.1 5.6 8.4 89 0.8 S 22 37 12 20 1019.4 - 1.5
10/04:30pm 10.1 4.8 8.4 89 0.8 S 26 35 14 19 1019.4 - 1.3
10/04:15pm 10.3 4.3 8.5 89 0.9 SSE 30 37 16 20 1019.2 - 0.9
10/04:00pm 10.4 3.8 8.5 88 0.9 S 33 50 18 27 1019.0 - 0.6
10/03:45pm 10.7 3.7 8.5 86 1.1 SSE 35 54 19 29 1019.0 - 0.4
10/03:30pm 11.5 5.1 8.6 82 1.4 S 32 52 17 28 1018.7 - 0.2
10/03:15pm 12.3 6.2 8.3 76 2.0 S 30 44 16 24 1018.5 - 0.2
10/03:00pm 12.8 7.1 8.4 74 2.2 S 28 37 15 20 1018.3 - 0.2
10/02:45pm 13.3 6.2 7.9 70 2.7 S 35 50 19 27 1018.3 - 0.2
10/02:30pm 14.0 6.4 7.7 66 3.1 SSE 37 52 20 28 1018.2 - 0.2
10/02:15pm 14.1 4.7 7.2 63 3.4 SSE 46 61 25 33 1018.1 - 0.2
10/02:00pm 13.6 5.5 6.9 64 3.3 SSE 39 54 21 29 1018.0 - 0.2
10/01:45pm 14.2 6.0 6.5 60 3.7 SSE 39 56 21 30 1017.9 - 0.2
10/01:30pm 14.2 6.0 6.5 60 3.7 SSE 39 54 21 29 1017.8 - 0.2
10/01:15pm 13.7 3.9 6.9 63 3.3 SSE 48 61 26 33 1017.8 - 0.2
10/01:00pm 13.6 4.9 7.6 67 3.0 SSE 43 59 23 32 1017.7 - 0.2
10/12:45pm 14.1 5.3 7.1 62 3.4 SSE 43 59 23 32 1017.7 - 0.2
10/12:30pm 13.7 6.1 7.6 66 3.0 SSE 37 57 20 31 1017.8 - 0.2
10/12:15pm 13.5 2.3 7.5 67 3.0 SSE 56 65 30 35 1017.9 - 0.2
10/12:00pm 13.2 5.5 8.6 73 2.3 SSE 39 56 21 30 1017.9 - 0.2
10/11:45am 12.2 5.0 9.1 81 1.6 SSE 37 56 20 30 1018.0 - 0.2
10/11:30am 11.8 4.2 9.0 83 1.4 SSE 39 54 21 29 1018.2 - 0.2
10/11:15am 12.3 3.7 8.9 80 1.7 SSE 44 59 24 32 1018.0 - 0.0
10/11:00am 12.5 4.6 9.4 81 1.6 SSE 41 54 22 29 1017.9 - 0.0
10/10:45am 13.2 4.7 8.4 72 2.4 SSE 43 59 23 32 1017.7 - 0.0
10/10:30am 13.6 5.9 8.6 72 2.5 SSE 39 56 21 30 1017.5 - 0.0
10/10:15am 13.9 4.0 8.4 69 2.8 SSE 50 69 27 37 1017.4 - 0.0
10/10:00am 14.4 5.2 8.2 66 3.1 SSE 46 65 25 35 1017.2 - 0.0
10/09:45am 14.5 5.8 7.7 63 3.4 SSE 43 63 23 34 1017.0 - 0.0
10/09:30am 14.4 6.6 6.8 60 3.7 SSE 37 59 20 32 1016.7 - 0.0
10/09:15am 14.1 5.0 6.8 61 3.6 SSE 44 59 24 32 1016.4 - 0.0
10/09:00am 14.1 5.0 7.0 62 3.5 SSE 44 59 24 32 1016.2 - 49.8
10/08:45am 13.7 4.8 7.6 66 3.0 SSE 44 67 24 36 1016.0 - 49.8
10/08:30am 13.2 3.2 7.8 70 2.7 SSE 50 65 27 35 1015.8 - 49.8
10/08:15am 13.1 3.9 8.2 72 2.4 SSE 46 59 25 32 1015.6 - 49.8
10/08:00am 13.0 3.0 8.0 71 2.5 SSE 50 69 27 37 1015.4 - 49.8
10/07:45am 12.8 2.6 8.4 74 2.2 SSE 52 70 28 38 1015.1 - 49.8
10/07:30am 12.4 3.4 8.9 79 1.8 SSE 46 59 25 32 1014.8 - 49.8
10/07:15am 12.2 3.0 9.5 83 1.4 SSE 48 59 26 32 1014.6 - 49.8
10/07:00am 11.7 3.6 9.9 89 0.9 SSE 43 59 23 32 1014.3 - 49.8
10/06:45am 11.4 3.3 9.9 90 0.8 SE 43 59 23 32 1014.2 - 49.6
10/06:30am 11.3 3.1 9.8 90 0.8 SE 43 59 23 32 1014.0 - 49.2
10/06:15am 11.4 3.1 10.0 91 0.7 SE 44 61 24 33 1013.6 - 47.5
10/06:00am 11.4 2.7 9.8 90 0.8 SSE 46 74 25 40 1013.3 - 46.7
10/05:45am 11.7 2.6 10.0 89 0.9 SSE 48 69 26 37 1012.9 - 45.8
10/05:30am 11.6 3.3 10.0 90 0.8 SE 44 59 24 32 1012.7 - 45.4
10/05:15am 11.7 4.0 10.2 90 0.8 SE 41 65 22 35 1012.3 - 44.8
10/05:00am 11.8 4.1 10.2 90 0.8 SE 41 59 22 32 1012.1 - 44.5
10/04:45am 12.0 3.8 10.3 89 0.9 SSE 44 63 24 34 1011.7 - 43.5
10/04:30am 12.2 3.6 10.2 87 1.0 SE 46 70 25 38 1011.5 - 43.3
10/04:15am 12.5 4.4 10.2 86 1.2 SSE 43 56 23 30 1011.2 - 42.8
10/04:00am 12.5 4.4 10.2 86 1.2 SE 43 63 23 34 1011.2 - 42.4
10/03:45am 12.1 4.1 10.3 89 0.9 SE 43 56 23 30 1011.0 - 42.4
10/03:30am 12.0 3.9 10.1 88 1.0 SE 43 59 23 32 1010.9 - 42.4
10/03:15am 11.9 3.8 10.1 89 0.9 SE 43 65 23 35 1010.5 - 42.4
10/03:00am 12.0 2.9 10.0 87 1.0 SE 48 67 26 36 1010.3 - 42.0
10/02:45am 12.0 4.3 10.2 89 0.9 SE 41 69 22 37 1010.3 - 41.6
10/02:30am 11.9 3.6 10.1 89 0.9 SE 44 65 24 35 1010.4 - 41.6
10/02:15am 11.8 3.4 9.8 87 1.0 SE 44 69 24 37 1010.5 - 39.5
10/02:00am 12.2 4.4 9.7 85 1.3 SE 41 59 22 32 1010.5 - 37.0
10/01:45am 12.5 4.3 9.6 82 1.5 SE 43 63 23 34 1010.4 - 36.9
10/01:30am 12.4 4.5 9.5 82 1.5 SE 41 63 22 34 1010.4 - 36.9
10/01:15am 12.4 4.9 9.4 82 1.5 SE 39 56 21 30 1010.4 - 36.9
10/01:00am 12.6 4.7 9.4 81 1.6 SE 41 56 22 30 1010.4 - 36.9
10/12:45am 12.4 6.7 9.7 83 1.4 SE 30 56 16 30 1010.4 - 36.9
10/12:30am 12.2 6.4 9.5 83 1.4 SE 30 44 16 24 1010.3 - 36.9
10/12:15am 12.1 5.4 9.5 84 1.3 SE 35 46 19 25 1010.2 - 36.9
10/12:00am 11.7 6.3 9.6 87 1.1 SE 28 46 15 25 1009.8 - 36.9
 
Date/Time
EST
Temp
°C
App
Temp
°C
Dew
Point
°C
Rel
Hum
%
Delta-T
°C
Wind Press
QNH
hPa
Press
MSL
hPa
Rain since
9am
mm
Dir  Spd
km/h
Gust
km/h
Spd
kts
Gust
kts
09/11:45pm 11.4 5.9 9.3 87 1.1 SE 28 37 15 20 1009.7 - 36.9
09/11:30pm 12.1 5.9 9.3 83 1.4 SSE 32 43 17 23 1009.4 - 36.5
09/11:15pm 12.3 6.1 9.3 82 1.5 SE 32 46 17 25 1009.5 - 36.3
09/11:00pm 12.5 5.4 9.7 83 1.4 SSE 37 54 20 29 1009.6 - 36.3
09/10:45pm 12.8 6.2 9.9 82 1.5 SE 35 48 19 26 1009.4 - 36.3
09/10:30pm 12.8 6.7 9.6 81 1.6 SE 32 41 17 22 1009.2 - 36.3
09/10:15pm 12.7 7.3 9.5 81 1.6 SE 28 41 15 22 1009.0 - 36.3
09/10:00pm 12.5 7.1 9.4 81 1.6 SE 28 43 15 23 1008.6 - 36.3
09/09:45pm 12.3 6.8 9.3 82 1.5 SE 28 43 15 23 1008.4 - 36.3
09/09:30pm 12.1 6.6 9.1 82 1.5 SE 28 41 15 22 1008.3 - 36.3
09/09:15pm 12.2 6.1 9.6 84 1.3 SE 32 43 17 23 1007.9 - 36.3
09/09:00pm 11.8 6.9 9.8 87 1.0 SE 26 37 14 20 1007.6 - 36.3
09/08:45pm 11.4 5.0 9.5 88 1.0 SE 33 48 18 26 1007.0 - 36.3
09/08:30pm 11.2 2.7 9.2 87 1.0 ESE 44 56 24 30 1006.1 - 36.3
09/08:15pm 11.6 -1.2 9.4 86 1.1 ESE 67 80 36 43 1004.8 - 36.3
09/08:00pm 11.8 1.5 9.6 86 1.1 SE 54 80 29 43 1003.3 - 36.3
09/07:45pm 12.4 -0.7 9.9 85 1.3 SE 69 102 37 55 1002.1 - 36.3
09/07:30pm 13.1 -2.5 10.6 85 1.3 SSE 83 98 45 53 1001.3 - 36.3
09/07:15pm 12.9 1.3 11.2 89 0.9 S 63 93 34 50 1001.6 - 36.3
09/07:00pm 11.7 1.2 10.4 92 0.7 S 56 93 30 50 1002.9 - 36.3
09/06:45pm 10.7 1.4 9.3 91 0.7 SSW 48 67 26 36 1003.4 - 36.3
09/06:30pm 10.7 1.8 9.3 91 0.7 SSW 46 63 25 34 1003.9 - 34.2
09/06:15pm 10.8 2.9 9.5 92 0.7 SSW 41 61 22 33 1004.6 - 33.1
09/06:00pm 10.8 3.3 9.5 92 0.7 SSW 39 56 21 30 1005.4 - 31.9
09/05:45pm 10.8 5.4 9.6 92 0.6 SSW 28 37 15 20 1006.0 - 30.4
09/05:30pm 10.9 6.3 9.7 92 0.6 S 24 33 13 18 1006.5 - 28.5
09/05:15pm 10.7 7.4 9.5 92 0.6 S 17 22 9 12 1006.7 - 26.8
09/05:00pm 10.4 6.6 9.2 92 0.6 S 19 28 10 15 1006.8 - 23.0
09/04:45pm 10.0 5.6 8.9 93 0.5 SSE 22 33 12 18 1006.8 - 21.3
09/04:30pm 9.4 5.8 8.2 92 0.6 S 17 26 9 14 1006.9 - 19.0
09/04:15pm 9.1 5.8 7.9 92 0.6 WSW 15 19 8 10 1007.0 - 16.5
09/04:00pm 8.8 4.6 7.6 92 0.6 W 19 28 10 15 1007.2 - 13.9
09/03:45pm 8.9 4.2 7.6 91 0.6 W 22 26 12 14 1007.2 - 12.0
09/03:30pm 9.0 3.1 7.7 91 0.6 WSW 28 35 15 19 1007.4 - 10.3
09/03:15pm 9.0 2.8 7.7 91 0.6 WSW 30 35 16 19 1007.6 - 9.1
09/03:00pm 9.0 3.1 7.6 91 0.7 WSW 28 33 15 18 1007.8 - 8.2
09/02:45pm 8.9 3.4 7.5 91 0.7 WSW 26 33 14 18 1008.0 - 7.0
09/02:30pm 8.8 4.0 7.3 90 0.7 WSW 22 30 12 16 1008.2 - 5.9
09/02:15pm 8.9 3.7 7.3 90 0.8 WSW 24 30 13 16 1008.2 - 4.8
09/02:00pm 9.1 3.6 7.5 90 0.8 W 26 32 14 17 1008.2 - 3.2
09/01:45pm 9.2 2.9 7.5 89 0.8 WSW 30 35 16 19 1008.4 - 2.5
09/01:30pm 9.3 3.0 7.5 88 0.9 WSW 30 35 16 19 1008.7 - 1.9
09/01:15pm 9.3 3.7 7.2 87 1.0 WSW 26 30 14 16 1009.0 - 1.9
09/01:00pm 9.5 4.6 7.0 84 1.2 WSW 22 28 12 15 1009.1 - 1.7
09/12:45pm 10.0 5.7 6.8 80 1.5 WSW 19 22 10 12 1009.3 - 0.6
09/12:30pm 10.6 6.2 6.5 76 1.9 SW 19 24 10 13 1009.4 - 0.2
09/12:15pm 11.0 6.4 6.4 73 2.2 SW 20 26 11 14 1009.6 - 0.0
09/12:00pm 11.1 7.1 6.7 74 2.1 SW 17 20 9 11 1009.9 - 0.0
09/11:45am 10.9 6.5 6.7 75 2.0 WSW 19 22 10 12 1010.1 - 0.0
09/11:30am 10.5 6.0 6.3 75 2.0 WSW 19 24 10 13 1010.4 - 0.0
09/11:15am 10.3 5.7 5.8 73 2.1 WSW 19 22 10 12 1010.7 - 0.0
09/11:00am 10.3 5.7 5.6 72 2.2 SW 19 26 10 14 1010.9 - 0.0
09/10:45am 10.3 5.6 5.2 70 2.3 SW 19 24 10 13 1011.0 - 0.0
09/10:30am 10.2 4.9 5.0 70 2.4 WSW 22 28 12 15 1011.1 - 0.0
09/10:15am 10.2 4.9 5.0 70 2.4 WSW 22 26 12 14 1011.1 - 0.0
09/10:00am 10.1 4.8 5.1 71 2.3 WSW 22 28 12 15 1011.2 - 0.0
09/09:45am 9.7 4.0 4.8 71 2.2 WSW 24 30 13 16 1011.3 - 0.0
09/09:30am 9.4 3.3 4.8 73 2.1 WSW 26 28 14 15 1011.4 - 0.0
09/09:15am 9.6 3.8 4.6 71 2.2 SW 24 32 13 17 1011.5 - 0.0
09/09:00am 9.6 4.2 4.7 71 2.2 SW 22 28 12 15 1011.6 - 0.4
09/08:45am 9.3 3.1 4.5 72 2.1 SW 26 30 14 16 1011.6 - 0.4
09/08:30am 9.1 3.3 4.4 72 2.1 SW 24 32 13 17 1011.5 - 0.4
09/08:15am 9.0 2.8 4.3 72 2.1 SW 26 33 14 18 1011.4 - 0.4
09/08:00am 8.9 3.1 4.4 73 2.0 SW 24 30 13 16 1011.5 - 0.4
09/07:45am 8.5 2.7 4.4 75 1.8 SW 24 32 13 17 1011.5 - 0.4
09/07:30am 8.0 2.2 4.4 78 1.6 SW 24 28 13 15 1011.5 - 0.4
09/07:15am 7.4 2.0 4.3 81 1.4 SSW 22 26 12 14 1011.4 - 0.4
09/07:00am 7.2 2.1 4.0 80 1.4 SW 20 22 11 12 1011.2 - 0.4
09/06:45am 7.2 1.7 4.1 81 1.3 SW 22 24 12 13 1011.0 - 0.4
09/06:30am 7.2 2.1 4.1 81 1.3 SW 20 24 11 13 1010.9 - 0.4
09/06:15am 7.2 1.7 4.2 81 1.3 SW 22 24 12 13 1010.7 - 0.4
09/06:00am 7.2 2.3 4.1 81 1.3 SW 19 20 10 11 1010.6 - 0.4
09/05:45am 7.4 2.0 4.3 81 1.4 SW 22 24 12 13 1010.4 - 0.4
09/05:30am 7.6 2.2 4.3 79 1.4 SW 22 24 12 13 1010.3 - 0.4
09/05:15am 7.7 2.3 4.4 79 1.4 SW 22 26 12 14 1010.2 - 0.4
09/05:00am 7.9 2.9 4.4 78 1.5 SW 20 24 11 13 1010.1 - 0.4
09/04:45am 8.1 3.1 4.6 78 1.6 SW 20 26 11 14 1010.0 - 0.4
09/04:30am 8.2 2.5 4.8 79 1.5 SW 24 28 13 15 1010.0 - 0.4
09/04:15am 8.3 2.6 4.9 79 1.5 SW 24 28 13 15 1009.9 - 0.4
09/04:00am 8.4 2.7 5.0 79 1.5 SW 24 28 13 15 1009.9 - 0.4
09/03:45am 8.5 2.5 5.1 79 1.5 SW 26 28 14 15 1010.1 - 0.4
09/03:30am 8.7 3.1 5.2 79 1.6 SW 24 26 13 14 1010.3 - 0.4
09/03:15am 8.9 3.4 4.1 72 2.1 SW 22 26 12 14 1010.4 - 0.4
09/03:00am 9.2 4.0 5.6 78 1.6 WSW 22 26 12 14 1010.5 - 0.4
09/02:45am 9.4 4.6 5.7 78 1.7 WSW 20 26 11 14 1010.7 - 0.4
09/02:30am 9.7 4.6 5.9 77 1.8 WSW 22 28 12 15 1010.8 - 0.4
09/02:15am 9.8 3.9 6.0 77 1.8 WSW 26 30 14 16 1010.9 - 0.4
09/02:00am 9.9 4.5 6.2 78 1.7 SW 24 28 13 15 1011.2 - 0.4
09/01:45am 9.8 4.1 6.5 80 1.5 SW 26 28 14 15 1011.3 - 0.4
09/01:30am 9.7 4.7 6.6 81 1.5 SW 22 26 12 14 1011.5 - 0.4
09/01:15am 9.5 4.9 6.6 82 1.4 SW 20 22 11 12 1011.4 - 0.4
09/01:00am 9.7 5.1 6.7 81 1.4 SW 20 22 11 12 1011.3 - 0.4
09/12:45am 9.7 5.2 6.9 83 1.3 SW 20 24 11 13 1011.4 - 0.4
09/12:30am 9.8 4.9 6.9 82 1.4 SW 22 26 12 14 1011.5 - 0.4
09/12:15am 10.0 5.6 7.2 83 1.3 WSW 20 22 11 12 1011.6 - 0.4
09/12:00am 9.8 5.5 7.0 83 1.3 SW 19 22 10 12 1011.6 - 0.4
 
Date/Time
EST
Temp
°C
App
Temp
°C
Dew
Point
°C
Rel
Hum
%
Delta-T
°C
Wind Press
QNH
hPa
Press
MSL
hPa
Rain since
9am
mm
Dir  Spd
km/h
Gust
km/h
Spd
kts
Gust
kts
08/11:45pm 10.1 4.9 7.2 82 1.4 SW 24 24 13 13 1011.5 - 0.4
08/11:30pm 10.2 4.6 7.3 82 1.4 SW 26 26 14 14 1011.6 - 0.4
08/11:15pm 10.3 4.4 7.4 82 1.4 SW 28 28 15 15 1011.6 - 0.4
08/11:00pm 10.5 4.6 7.6 82 1.4 SW 28 28 15 15 1011.5 - 0.4
08/10:45pm 10.7 5.3 7.9 83 1.4 WSW 26 28 14 15 1011.7 - 0.4
08/10:30pm 10.5 5.1 8.1 85 1.2 WSW 26 28 14 15 1011.7 - 0.4
08/10:15pm 10.3 5.7 8.2 87 1.0 WSW 22 28 12 15 1011.6 - 0.4
08/10:00pm 10.2 4.8 8.2 87 1.0 WSW 26 28 14 15 1011.4 - 0.4
08/09:45pm 10.5 4.8 8.5 87 1.0 WSW 28 28 15 15 1011.4 - 0.4
08/09:30pm 11.0 5.5 9.2 89 0.9 WSW 28 33 15 18 1011.6 - 0.4
08/09:15pm 11.2 7.0 9.7 90 0.8 WSW 22 26 12 14 1011.6 - 0.4
08/09:00pm 11.4 8.6 9.9 90 0.8 WSW 15 19 8 10 1011.8 - 0.4
08/08:45pm 11.6 10.3 10.1 90 0.8 WSW 7 9 4 5 1011.9 - 0.2
08/08:30pm 11.8 10.2 10.3 90 0.8 SW 9 13 5 7 1011.9 - 0.2
08/08:15pm 12.0 10.1 10.5 90 0.8 W 11 15 6 8 1011.8 - 0.2
08/08:00pm 12.1 11.0 10.7 91 0.7 WNW 7 11 4 6 1011.8 - 0.0
08/07:45pm 12.1 10.6 10.7 91 0.7 NNW 9 11 5 6 1011.7 - 0.0
08/07:30pm 12.0 10.9 10.7 92 0.7 - 7 7 4 4 1011.6 - 0.0
08/07:15pm 12.0 10.9 10.6 91 0.7 NE 7 7 4 4 1011.4 - 0.0
08/07:00pm 11.9 11.0 10.5 91 0.7 NE 6 7 3 4 1011.5 - 0.0
08/06:45pm 11.8 10.8 10.3 90 0.8 ENE 6 7 3 4 1011.6 - 0.0
08/06:30pm 11.8 10.6 10.3 90 0.8 ENE 7 7 4 4 1011.5 - 0.0
08/06:15pm 11.8 10.8 10.2 90 0.8 NE 6 7 3 4 1011.5 - 0.0
08/06:00pm 11.8 10.7 10.1 89 0.9 ENE 6 7 3 4 1011.3 - 0.0
08/05:45pm 12.0 11.0 10.2 89 0.9 NE 6 7 3 4 1011.0 - 0.0
08/05:30pm 12.3 10.8 10.4 88 1.0 NE 9 9 5 5 1010.9 - 0.0
08/05:15pm 12.6 11.5 10.6 88 1.0 ENE 7 7 4 4 1010.8 - 0.0
08/05:00pm 12.8 11.4 10.8 88 1.1 ENE 9 9 5 5 1010.8 - 0.0
08/04:45pm 13.0 12.2 10.9 87 1.1 ENE 6 7 3 4 1010.8 - 0.0
08/04:30pm 13.1 12.7 11.0 87 1.1 W 4 7 2 4 1010.8 - 0.0
08/04:15pm 13.0 12.0 10.9 87 1.1 W 7 13 4 7 1010.8 - 0.0
08/04:00pm 13.0 11.6 10.9 87 1.1 WNW 9 13 5 7 1010.6 - 0.0
08/03:45pm 13.0 10.8 10.8 86 1.2 W 13 17 7 9 1010.5 - 0.0
08/03:30pm 13.1 10.9 10.9 86 1.2 WNW 13 17 7 9 1010.6 - 0.0
08/03:15pm 13.2 10.3 11.0 86 1.2 WNW 17 22 9 12 1010.8 - 0.0
08/03:00pm 13.2 10.7 11.1 87 1.1 WNW 15 19 8 10 1011.0 - 0.0
08/02:45pm 13.3 10.8 11.1 86 1.2 WNW 15 22 8 12 1011.2 - 0.0
08/02:30pm 13.5 10.3 11.2 86 1.2 WNW 19 22 10 12 1011.2 - 0.0
08/02:15pm 13.4 10.9 11.1 86 1.2 WNW 15 20 8 11 1011.1 - 0.0
08/02:00pm 13.4 12.0 11.0 85 1.3 W 9 11 5 6 1010.9 - 0.0
08/01:45pm 13.4 11.6 11.0 85 1.3 WNW 11 15 6 8 1011.2 - 0.0
08/01:30pm 13.5 10.9 10.7 83 1.5 NW 15 19 8 10 1011.6 - 0.0
08/01:15pm 14.0 10.7 10.8 81 1.7 NW 19 26 10 14 1011.8 - 0.0
08/01:00pm 14.5 11.1 11.1 80 1.8 NW 20 24 11 13 1011.9 - 0.0
08/12:45pm 14.8 11.6 11.4 80 1.8 NW 19 26 10 14 1011.9 - 0.0
08/12:30pm 14.9 11.2 11.4 79 1.9 NW 22 28 12 15 1012.0 - 0.0
08/12:15pm 15.1 10.3 11.5 79 1.9 NW 28 32 15 17 1012.4 - 0.0
08/12:00pm 15.1 11.9 11.9 81 1.7 NW 20 28 11 15 1012.7 - 0.0
08/11:45am 15.2 13.4 12.1 82 1.7 NNW 13 19 7 10 1013.0 - 0.0
08/11:30am 15.2 14.1 11.9 81 1.8 - 9 13 5 7 1013.2 - 0.0
08/11:15am 15.6 15.0 11.6 77 2.2 N 6 11 3 6 1013.4 - 0.0
08/11:00am 15.6 14.9 11.9 78 2.0 S 7 11 4 6 1013.5 - 0.0
08/10:45am 15.8 14.3 12.0 78 2.1 SSW 11 17 6 9 1013.3 - 0.0
08/10:30am 16.2 15.0 12.8 80 1.9 SSW 11 19 6 10 1013.2 - 0.0
08/10:15am 15.4 14.1 12.5 83 1.6 SW 11 15 6 8 1013.4 - 0.0
08/10:00am 15.2 14.1 13.0 87 1.2 WSW 11 13 6 7 1013.6 - 0.0
08/09:45am 14.6 13.0 12.9 89 0.9 WSW 13 17 7 9 1013.9 - 0.0
08/09:30am 14.0 12.4 12.7 92 0.7 W 13 17 7 9 1014.0 - 0.0
08/09:15am 13.8 12.2 12.7 93 0.6 WSW 13 17 7 9 1014.2 - 0.0
08/09:00am 13.2 11.8 12.2 94 0.5 WSW 11 15 6 8 1014.4 - 28.9
08/08:45am 12.8 12.1 11.9 94 0.5 SW 7 11 4 6 1014.6 - 28.9
08/08:30am 11.8 10.1 9.7 87 1.1 SSW 9 9 5 5 1014.4 - 28.9
08/08:15am 10.9 9.2 10.0 94 0.5 SSW 9 11 5 6 1014.4 - 28.9
08/08:00am 10.4 8.6 9.4 93 0.5 SSW 9 11 5 6 1014.4 - 28.9
08/07:45am 10.4 9.0 9.4 93 0.5 SSW 7 11 4 6 1014.4 - 28.9
08/07:30am 10.6 8.8 9.6 93 0.5 WSW 9 11 5 6 1014.4 - 28.9
08/07:15am 10.7 9.3 9.7 93 0.5 W 7 9 4 5 1014.4 - 28.9
08/07:00am 10.7 10.3 9.7 93 0.5 W 2 6 1 3 1014.3 - 28.9
08/06:45am 10.4 9.9 9.3 93 0.6 - 2 2 1 1 1014.4 - 28.9

Other formats

Comma delimited format used in spreadsheet applications
http://www.bom.gov.au/fwo/IDN60801/IDN60801.95757.axf

JavaScript Object Notation format (JSON) in row-major order
http://www.bom.gov.au/fwo/IDN60801/IDN60801.95757.json

Data quality

Most of these data are generated automatically and are frequently updated. Quality checks on data are not normally performed. It is possible for incorrect values to appear. Refer to information at About Latest Weather Observations and please check the disclaimer before using these data.